Time;durP1;ratioP1;P1;durP2;ratioP2;P2;SDS_P1;SDS_P2;PMS_P1;PMS_P2;Temp;Humidity;BMP_temperature;BMP_pressure;BME280_temperature;BME280_humidity;BME280_pressure;Samples;Min_cycle;Max_cycle;Signal;HPM_P1;HPM_P2
2023/04/19 00:00:07;;;;;;;12.40;7.17;;;;;;;-141.97;100.00;47853.53;5050089;28;20208;-82
2023/04/19 00:02:32;;;;;;;13.13;6.80;;;;;;;-141.97;100.00;47795.88;5052565;28;20160;-83
2023/04/19 00:04:58;;;;;;;13.73;7.43;;;;;;;-141.97;100.00;47851.59;5052023;28;20165;-83
2023/04/19 00:07:23;;;;;;;12.50;7.30;;;;;;;-141.97;100.00;47857.38;5051968;28;20207;-82
2023/04/19 00:09:49;;;;;;;13.93;6.87;;;;;;;-141.97;100.00;47861.22;5052388;28;20638;-82
2023/04/19 00:12:14;;;;;;;13.40;6.90;;;;;;;-141.97;100.00;47872.75;5034278;28;20200;-82
2023/04/19 00:14:40;;;;;;;14.93;7.47;;;;;;;-141.97;100.00;47842.00;5034003;28;20634;-82
2023/04/19 00:17:05;;;;;;;14.87;6.77;;;;;;;-141.97;100.00;47866.97;5051644;28;20165;-83
2023/04/19 00:19:31;;;;;;;14.30;7.20;;;;;;;-141.97;100.00;47874.69;5051853;28;20158;-83
2023/04/19 00:21:56;;;;;;;14.00;7.20;;;;;;;-141.97;100.00;47803.56;5051953;28;20176;-83
2023/04/19 00:24:21;;;;;;;13.23;7.30;;;;;;;-141.97;100.00;47842.00;5051680;28;20167;-83
2023/04/19 00:26:47;;;;;;;14.37;7.03;;;;;;;-141.97;100.00;47815.09;5051727;28;20204;-83
2023/04/19 00:29:12;;;;;;;13.47;6.83;;;;;;;-141.97;100.00;47857.38;5051807;28;20169;-82
2023/04/19 00:31:38;;;;;;;16.50;8.30;;;;;;;-141.97;100.00;47830.47;5051778;28;20645;-83
2023/04/19 00:34:05;;;;;;;18.13;8.10;;;;;;;-141.97;100.00;47797.78;5052233;28;20157;-84
2023/04/19 00:36:30;;;;;;;15.60;8.13;;;;;;;-141.97;100.00;47855.44;5033540;28;20244;-82
2023/04/19 00:38:55;;;;;;;16.10;8.33;;;;;;;-141.97;100.00;47834.31;5051349;28;20525;-82
2023/04/19 00:41:21;;;;;;;16.40;8.00;;;;;;;-141.97;100.00;47815.09;5051602;28;20180;-82
2023/04/19 00:43:46;;;;;;;16.37;8.73;;;;;;;-141.97;100.00;47876.59;5051751;28;20669;-82
2023/04/19 00:46:13;;;;;;;16.77;8.47;;;;;;;-141.97;100.00;47884.28;5043622;28;20162;-82
2023/04/19 00:48:39;;;;;;;16.83;8.10;;;;;;;-141.97;100.00;47886.22;5041826;28;20193;-83
2023/04/19 00:51:04;;;;;;;17.00;8.57;;;;;;;-141.97;100.00;47847.75;5042344;28;20300;-82
2023/04/19 00:53:30;;;;;;;16.57;8.03;;;;;;;-141.97;100.00;47849.69;5042245;28;20189;-80
2023/04/19 00:56:00;;;;;;;15.37;7.60;;;;;;;-141.97;100.00;47876.59;5055169;28;20220;-84
2023/04/19 00:58:29;;;;;;;18.00;8.27;;;;;;;-141.97;100.00;47861.22;5042260;28;20684;-84
2023/04/19 01:00:54;;;;;;;14.50;7.50;;;;;;;-141.97;100.00;47868.91;5025158;28;20182;-83
2023/04/19 01:03:20;;;;;;;15.60;8.20;;;;;;;-141.97;100.00;47842.00;5041467;28;20180;-84
2023/04/19 01:05:47;;;;;;;15.47;8.43;;;;;;;-141.97;100.00;47874.69;5039001;28;20154;-83
2023/04/19 01:08:12;;;;;;;13.13;7.00;;;;;;;-141.97;100.00;47832.38;5041786;28;20176;-82
2023/04/19 01:10:38;;;;;;;16.47;8.07;;;;;;;-141.97;100.00;47853.53;5040426;28;20626;-82
2023/04/19 01:13:03;;;;;;;16.30;7.40;;;;;;;-141.97;100.00;47891.97;5040239;28;20268;-83
2023/04/19 01:15:30;;;;;;;13.60;7.30;;;;;;;-141.97;100.00;47859.28;5041847;28;20665;-83
2023/04/19 01:17:55;;;;;;;11.53;6.47;;;;;;;-141.97;100.00;47842.00;5041436;28;20519;-82
2023/04/19 01:20:21;;;;;;;12.10;6.40;;;;;;;-141.97;100.00;47878.53;5023260;28;20174;-82
2023/04/19 01:22:46;;;;;;;12.83;6.57;;;;;;;-141.97;100.00;47982.31;5039645;28;20170;-83
2023/04/19 01:25:11;;;;;;;11.73;6.40;;;;;;;-141.97;100.00;47838.16;5041715;28;20173;-83
2023/04/19 01:27:37;;;;;;;11.10;6.17;;;;;;;-141.97;100.00;47865.06;5039361;28;20223;-82
2023/04/19 01:30:03;;;;;;;10.10;5.47;;;;;;;-141.97;100.00;47861.22;5040999;28;20205;-81
2023/04/19 01:32:28;;;;;;;11.70;6.10;;;;;;;-141.97;100.00;47834.31;5042151;28;20204;-82
2023/04/19 01:34:53;;;;;;;9.30;5.17;;;;;;;-141.97;100.00;47776.63;5041878;28;20630;-82
2023/04/19 01:37:19;;;;;;;9.13;5.27;;;;;;;-141.97;100.00;47876.59;5043235;28;20275;-82
2023/04/19 01:39:44;;;;;;;9.43;5.13;;;;;;;-141.97;100.00;47826.63;5043083;28;20299;-83
2023/04/19 01:42:10;;;;;;;9.67;4.80;;;;;;;-141.97;100.00;47843.91;5022419;28;20182;-82
2023/04/19 01:44:35;;;;;;;7.33;4.43;;;;;;;-141.97;100.00;47843.91;5033633;28;20170;-82
2023/04/19 01:47:01;;;;;;;8.43;4.83;;;;;;;-141.97;100.00;47866.97;5017044;28;20675;-82
2023/04/19 01:49:26;;;;;;;7.80;4.60;;;;;;;-141.97;100.00;47880.44;5035083;28;20173;-83
2023/04/19 01:51:52;;;;;;;9.17;4.53;;;;;;;-141.97;100.00;47828.53;5034674;28;20162;-82
2023/04/19 01:54:17;;;;;;;7.20;4.17;;;;;;;-141.97;100.00;47811.25;5016875;28;20162;-83
2023/04/19 01:56:42;;;;;;;7.90;4.47;;;;;;;-141.97;100.00;47817.00;5034403;28;20273;-83
2023/04/19 01:59:08;;;;;;;6.30;4.00;;;;;;;-141.97;100.00;47830.47;5034484;28;20193;-82
2023/04/19 02:01:33;;;;;;;9.60;4.50;;;;;;;-141.97;100.00;47945.81;5034610;28;20265;-83
2023/04/19 02:03:59;;;;;;;5.97;3.80;;;;;;;-141.97;100.00;47876.59;5034554;28;20574;-83
2023/04/19 02:06:25;;;;;;;6.47;4.10;;;;;;;-141.97;100.00;47865.06;5034360;28;20570;-83
2023/04/19 02:08:51;;;;;;;6.53;3.80;;;;;;;-141.97;100.00;47865.06;5016790;28;20623;-83
2023/04/19 02:11:16;;;;;;;5.17;3.47;;;;;;;-141.97;100.00;47830.47;5034298;28;20176;-84
2023/04/19 02:13:42;;;;;;;5.70;3.40;;;;;;;-141.97;100.00;47849.69;5034607;28;20158;-84
2023/04/19 02:16:08;;;;;;;4.70;3.10;;;;;;;-141.97;100.00;47980.41;5034224;28;20293;-84
2023/04/19 02:18:40;;;;;;;4.70;3.30;;;;;;;-141.97;100.00;47842.00;5034032;28;20595;-84
2023/04/19 02:21:06;;;;;;;5.30;2.50;;;;;;;-141.97;100.00;47868.91;5034217;28;20158;-83
2023/04/19 02:23:32;;;;;;;5.03;3.40;;;;;;;-141.97;100.00;47843.91;5035591;28;20158;-85
2023/04/19 02:25:57;;;;;;;4.67;3.17;;;;;;;-141.97;100.00;47853.53;5035220;28;20173;-84
2023/04/19 02:28:23;;;;;;;4.53;2.90;;;;;;;-141.97;100.00;47826.63;5034605;28;20173;-84
2023/04/19 02:30:48;;;;;;;4.90;3.13;;;;;;;-141.97;100.00;47811.25;5034148;28;20170;-84
2023/04/19 02:33:14;;;;;;;4.70;3.10;;;;;;;-141.97;100.00;47834.31;5016262;28;20166;-84
2023/04/19 02:35:40;;;;;;;5.33;3.00;;;;;;;-141.97;100.00;47834.31;5033667;28;20241;-84
2023/04/19 02:38:05;;;;;;;5.30;2.77;;;;;;;-141.97;100.00;47830.47;5033804;28;20699;-84
2023/04/19 02:40:31;;;;;;;4.70;2.90;;;;;;;-141.97;100.00;47880.44;5034328;28;20158;-85
2023/04/19 02:42:56;;;;;;;4.63;2.80;;;;;;;-141.97;100.00;47865.06;5016011;28;20638;-85
2023/04/19 02:45:22;;;;;;;5.00;3.00;;;;;;;-141.97;100.00;47853.53;5033807;28;20166;-84
2023/04/19 02:47:47;;;;;;;5.60;3.10;;;;;;;-141.97;100.00;47890.06;5033535;28;20167;-84
2023/04/19 02:50:15;;;;;;;7.27;3.00;;;;;;;-141.97;100.00;47824.69;5033681;28;20245;-84
2023/04/19 02:52:41;;;;;;;5.50;3.23;;;;;;;-141.97;100.00;47851.59;5033435;28;20170;-82
2023/04/19 02:55:06;;;;;;;4.60;3.30;;;;;;;-141.97;100.00;47845.84;5032668;28;20193;-83
2023/04/19 02:57:32;;;;;;;4.83;3.20;;;;;;;-141.97;100.00;47874.69;5035394;28;20630;-82
2023/04/19 02:59:57;;;;;;;6.03;3.30;;;;;;;-141.97;100.00;47861.22;5035867;28;20242;-82
2023/04/19 03:02:26;;;;;;;5.87;3.60;;;;;;;-141.97;100.00;47857.38;5036960;28;20201;-83
2023/04/19 03:04:52;;;;;;;4.67;2.90;;;;;;;-141.97;100.00;47893.91;5034685;28;20248;-83
2023/04/19 03:07:18;;;;;;;5.23;3.27;;;;;;;-141.97;100.00;47840.06;5034202;28;20180;-83
2023/04/19 03:09:43;;;;;;;5.60;2.90;;;;;;;-141.97;100.00;47842.00;5034444;28;20622;-83
2023/04/19 03:12:09;;;;;;;4.40;2.90;;;;;;;-141.97;100.00;47868.91;5033707;28;20169;-83
2023/04/19 03:14:34;;;;;;;4.30;3.10;;;;;;;-141.97;100.00;47884.28;5015592;28;20173;-84
2023/04/19 03:17:00;;;;;;;5.53;3.30;;;;;;;-141.97;100.00;47849.69;5033081;28;20206;-84
2023/04/19 03:19:25;;;;;;;5.13;3.53;;;;;;;-141.97;100.00;47842.00;5033562;28;20545;-83
2023/04/19 03:21:50;;;;;;;7.13;3.80;;;;;;;-141.97;100.00;47855.44;5033103;28;20190;-83
2023/04/19 03:24:25;;;;;;;7.83;4.50;;;;;;;-141.97;100.00;47822.78;5034741;28;20186;-83
2023/04/19 03:26:51;;;;;;;8.30;4.57;;;;;;;-141.97;100.00;47838.16;5033418;28;20162;-84
2023/04/19 03:29:16;;;;;;;6.90;3.83;;;;;;;-141.97;100.00;47853.53;5033140;28;20176;-84
2023/04/19 03:31:41;;;;;;;9.00;5.10;;;;;;;-141.97;100.00;47872.75;5015864;28;20552;-84
2023/04/19 03:34:07;;;;;;;9.87;5.30;;;;;;;-141.97;100.00;47817.00;5033641;28;20158;-83
2023/04/19 03:36:32;;;;;;;7.77;4.57;;;;;;;-141.97;100.00;47784.34;5032944;28;20260;-84
2023/04/19 03:38:57;;;;;;;7.83;4.80;;;;;;;-141.97;100.00;47855.44;5033614;28;20245;-84
2023/04/19 03:41:24;;;;;;;7.13;4.00;;;;;;;-141.97;100.00;47866.97;5048927;28;20154;-83
2023/04/19 03:43:50;;;;;;;6.73;4.60;;;;;;;-141.97;100.00;47880.44;5044996;28;20674;-84
2023/04/19 03:46:15;;;;;;;6.37;4.20;;;;;;;-141.97;100.00;47865.06;5033073;28;20186;-83
2023/04/19 03:48:41;;;;;;;6.70;3.90;;;;;;;-141.97;100.00;47853.53;5033162;28;20170;-84
2023/04/19 03:51:06;;;;;;;6.43;3.73;;;;;;;-141.97;100.00;47830.47;5032801;28;20219;-85
2023/04/19 03:53:32;;;;;;;7.00;4.00;;;;;;;-141.97;100.00;47876.59;5032704;28;20228;-85
2023/04/19 03:55:57;;;;;;;6.17;3.67;;;;;;;-141.97;100.00;47818.94;5042251;28;20216;-84
2023/04/19 03:58:23;;;;;;;4.80;3.40;;;;;;;-141.97;100.00;47861.22;5034567;28;20188;-84
2023/04/19 04:00:48;;;;;;;4.63;3.07;;;;;;;-141.97;100.00;47874.69;5051048;28;20161;-83
2023/04/19 04:03:13;;;;;;;4.40;2.43;;;;;;;-141.97;100.00;47859.28;5061284;28;20197;-83
2023/04/19 04:05:39;;;;;;;3.40;2.27;;;;;;;-141.97;100.00;47955.41;5053264;28;20597;-84
2023/04/19 04:08:04;;;;;;;3.90;2.67;;;;;;;-141.97;100.00;47855.44;5033038;28;20530;-83
2023/04/19 04:10:30;;;;;;;3.53;2.47;;;;;;;-141.97;100.00;47799.72;5032651;28;20177;-84
2023/04/19 04:12:55;;;;;;;3.13;2.50;;;;;;;-141.97;100.00;47884.28;5032163;28;20665;-83
2023/04/19 04:15:21;;;;;;;4.20;2.87;;;;;;;-141.97;100.00;47843.91;5014722;28;20297;-83
2023/04/19 04:17:46;;;;;;;3.60;2.53;;;;;;;-141.97;100.00;47849.69;5014492;28;20176;-83
2023/04/19 04:20:12;;;;;;;3.37;2.50;;;;;;;-141.97;100.00;47838.16;5032509;28;20243;-83
2023/04/19 04:22:42;;;;;;;5.37;2.90;;;;;;;-141.97;100.00;47842.00;5032154;28;20557;-84
2023/04/19 04:25:08;;;;;;;3.90;2.50;;;;;;;-141.97;100.00;47842.00;5031912;28;20197;-84
2023/04/19 04:27:34;;;;;;;3.10;2.50;;;;;;;-141.97;100.00;47834.31;5014205;28;20174;-84
2023/04/19 04:30:00;;;;;;;6.33;3.37;;;;;;;-141.97;100.00;47826.63;5031876;28;20185;-84
2023/04/19 04:32:26;;;;;;;7.50;5.13;;;;;;;-141.97;100.00;47857.38;5023431;28;20646;-84
2023/04/19 04:34:51;;;;;;;8.03;3.40;;;;;;;-141.97;100.00;47822.78;5030629;28;20170;-84
2023/04/19 04:37:17;;;;;;;3.00;2.30;;;;;;;-141.97;100.00;47895.81;5031456;28;20225;-84
2023/04/19 04:39:43;;;;;;;3.83;3.00;;;;;;;-141.97;100.00;47822.78;5031932;28;20245;-84
2023/04/19 04:42:08;;;;;;;5.80;3.90;;;;;;;-141.97;100.00;47847.75;5031504;28;20190;-83
2023/04/19 04:44:35;;;;;;;4.47;2.90;;;;;;;-141.97;100.00;47836.22;5030839;28;20177;-83
2023/04/19 04:47:00;;;;;;;4.37;3.03;;;;;;;-141.97;100.00;47845.84;5031973;28;20245;-84
2023/04/19 04:49:25;;;;;;;4.30;3.00;;;;;;;-141.97;100.00;47815.09;5031811;28;20197;-83
2023/04/19 04:51:51;;;;;;;6.37;3.37;;;;;;;-141.97;100.00;47753.56;5004289;28;20201;-84
2023/04/19 04:54:16;;;;;;;3.50;2.70;;;;;;;-141.97;100.00;47842.00;5049769;28;20192;-84
2023/04/19 04:56:42;;;;;;;4.60;3.00;;;;;;;-141.97;100.00;47840.06;5049764;28;20185;-84
2023/04/19 04:59:07;;;;;;;4.43;2.60;;;;;;;-141.97;100.00;47845.84;5050518;28;20264;-85
2023/04/19 05:01:32;;;;;;;4.97;2.90;;;;;;;-141.97;100.00;47865.06;5050816;28;20173;-85
2023/04/19 05:03:58;;;;;;;5.37;2.60;;;;;;;-141.97;100.00;47811.25;5050379;28;20173;-84
2023/04/19 05:06:23;;;;;;;13.77;9.43;;;;;;;-141.97;100.00;47840.06;5032458;28;20193;-84
2023/04/19 05:08:49;;;;;;;42.93;25.77;;;;;;;-141.97;100.00;47822.78;5051351;28;20173;-87
2023/04/19 05:11:15;;;;;;;38.93;25.00;;;;;;;-141.97;100.00;47824.69;5051130;28;20184;-85
2023/04/19 05:13:40;;;;;;;12.27;7.83;;;;;;;-141.97;100.00;47847.75;5050674;28;20242;-84
2023/04/19 05:16:06;;;;;;;7.27;4.87;;;;;;;-141.97;100.00;47832.38;5053619;28;20204;-84
2023/04/19 05:18:31;;;;;;;10.87;7.27;;;;;;;-141.97;100.00;47907.34;5054720;28;20545;-84
2023/04/19 05:20:57;;;;;;;13.43;9.20;;;;;;;-141.97;100.00;47809.31;5055727;28;20206;-84
2023/04/19 05:23:22;;;;;;;5.33;3.90;;;;;;;-141.97;100.00;47826.63;5054581;28;20173;-84
2023/04/19 05:25:48;;;;;;;5.77;3.73;;;;;;;-141.97;100.00;47842.00;5054750;28;20181;-85
2023/04/19 05:28:13;;;;;;;5.97;3.30;;;;;;;-141.97;100.00;47767.03;5054861;28;20176;-85
2023/04/19 05:30:39;;;;;;;5.57;3.47;;;;;;;-141.97;100.00;47815.09;5054802;28;20173;-84
2023/04/19 05:33:04;;;;;;;4.13;3.23;;;;;;;-141.97;100.00;47817.00;5054554;28;20235;-84
2023/04/19 05:35:30;;;;;;;21.87;10.67;;;;;;;-141.97;100.00;47853.53;5036540;28;20785;-84
2023/04/19 05:37:55;;;;;;;14.73;8.40;;;;;;;-141.97;100.00;47809.31;5054754;28;20168;-85
2023/04/19 05:40:22;;;;;;;5.53;3.63;;;;;;;-141.97;100.00;47815.09;5055109;28;20234;-84
2023/04/19 05:42:48;;;;;;;3.60;2.50;;;;;;;-141.97;100.00;47851.59;5054818;28;20174;-84
2023/04/19 05:45:15;;;;;;;4.47;2.90;;;;;;;-141.97;100.00;47842.00;5057146;28;20244;-83
2023/04/19 05:47:40;;;;;;;4.20;2.73;;;;;;;-141.97;100.00;47836.22;5037753;28;20181;-84
2023/04/19 05:50:06;;;;;;;6.83;4.73;;;;;;;-141.97;100.00;47811.25;5039087;28;20162;-83
2023/04/19 05:52:32;;;;;;;10.17;7.50;;;;;;;-141.97;100.00;47857.38;5030772;28;20226;-84
2023/04/19 05:54:58;;;;;;;7.67;4.27;;;;;;;-141.97;100.00;47786.25;5034961;28;20182;-85
2023/04/19 05:57:24;;;;;;;12.03;8.40;;;;;;;-141.97;100.00;47767.03;5034805;28;20214;-85
2023/04/19 05:59:50;;;;;;;12.77;7.00;;;;;;;-141.97;100.00;47880.44;5034575;28;20211;-84
2023/04/19 06:02:15;;;;;;;4.43;2.60;;;;;;;-141.97;100.00;47822.78;5034603;28;20178;-84
2023/04/19 06:04:41;;;;;;;6.20;3.40;;;;;;;-141.97;100.00;47851.59;5052740;28;20300;-85
2023/04/19 06:07:06;;;;;;;6.63;2.93;;;;;;;-141.97;100.00;47840.06;5054102;28;20189;-85
2023/04/19 06:09:32;;;;;;;9.43;5.37;;;;;;;-141.97;100.00;47815.09;5053839;28;20158;-85
2023/04/19 06:11:57;;;;;;;9.47;4.20;;;;;;;-141.97;100.00;47934.25;5054699;28;20173;-84
2023/04/19 06:14:23;;;;;;;4.40;2.20;;;;;;;-141.97;100.00;47749.72;5054482;28;20196;-84
2023/04/19 06:16:48;;;;;;;5.57;3.37;;;;;;;-141.97;100.00;47818.94;5054075;28;20181;-84
2023/04/19 06:19:14;;;;;;;6.00;3.50;;;;;;;-141.97;100.00;47861.22;5052316;28;20569;-83
2023/04/19 06:21:40;;;;;;;5.03;3.20;;;;;;;-141.97;100.00;47765.09;5054214;28;20557;-85
2023/04/19 06:24:06;;;;;;;10.10;4.60;;;;;;;-141.97;100.00;47813.16;5053462;28;20626;-84
2023/04/19 06:26:32;;;;;;;22.93;9.70;;;;;;;-141.97;100.00;47811.25;5041938;28;20212;-83
2023/04/19 06:28:57;;;;;;;15.00;6.43;;;;;;;-141.97;100.00;47857.38;5044170;28;20166;-84
2023/04/19 06:31:23;;;;;;;17.87;7.17;;;;;;;-141.97;100.00;47780.47;5053300;28;20168;-85
2023/04/19 06:33:49;;;;;;;61.00;17.00;;;;;;;-141.97;100.00;47803.56;5052707;28;20169;-84
2023/04/19 06:36:14;;;;;;;7.83;4.20;;;;;;;-141.97;100.00;47776.63;5053043;28;20637;-82
2023/04/19 06:38:40;;;;;;;8.97;4.90;;;;;;;-141.97;100.00;47718.97;5053622;28;20180;-86
2023/04/19 06:41:06;;;;;;;5.67;3.10;;;;;;;-141.97;100.00;47815.09;5038078;28;20284;-88
2023/04/19 06:43:32;;;;;;;14.67;7.50;;;;;;;-141.97;100.00;47792.03;5027707;28;20228;-84
2023/04/19 06:46:01;;;;;;;6.03;4.00;;;;;;;-141.97;100.00;47834.31;5033831;28;20534;-84
2023/04/19 06:48:27;;;;;;;14.20;6.47;;;;;;;-141.97;100.00;47805.47;5033419;28;20174;-82
2023/04/19 06:50:53;;;;;;;8.03;5.00;;;;;;;-141.97;100.00;47965.03;5033199;28;20257;-83
2023/04/19 06:53:18;;;;;;;13.40;7.80;;;;;;;-141.97;100.00;47966.94;5023374;28;20686;-83
2023/04/19 06:55:45;;;;;;;4.83;3.00;;;;;;;-141.97;100.00;47786.25;5040294;28;20331;-83
2023/04/19 06:58:10;;;;;;;3.20;2.53;;;;;;;-141.97;100.00;47834.31;5035559;28;20570;-84
2023/04/19 07:00:36;;;;;;;5.70;3.40;;;;;;;-141.97;100.00;47865.06;5033207;28;20165;-84
2023/04/19 07:03:02;;;;;;;5.53;3.63;;;;;;;-141.97;100.00;47834.31;5032869;28;21677;-84
2023/04/19 07:05:28;;;;;;;4.83;3.60;;;;;;;-141.97;100.00;47913.13;5032877;28;20548;-84
2023/04/19 07:07:53;;;;;;;5.30;3.63;;;;;;;-141.97;100.00;47780.47;5014857;28;20247;-89
2023/04/19 07:10:19;;;;;;;4.83;3.10;;;;;;;-141.97;100.00;47682.47;5031476;28;20999;-87
2023/04/19 07:12:45;;;;;;;12.50;6.90;;;;;;;-141.97;100.00;47951.56;5032515;28;20220;-84
2023/04/19 07:15:10;;;;;;;6.60;3.33;;;;;;;-141.97;100.00;47730.50;5035016;28;20230;-86
2023/04/19 07:17:36;;;;;;;5.00;3.50;;;;;;;-141.97;100.00;47817.00;5052648;28;20165;-84
2023/04/19 07:20:04;;;;;;;5.00;3.37;;;;;;;-141.97;100.00;47826.63;5052376;28;20606;-84
2023/04/19 07:22:29;;;;;;;8.90;5.37;;;;;;;-141.97;100.00;47830.47;5034349;28;20605;-84
2023/04/19 07:24:54;;;;;;;7.43;4.70;;;;;;;-141.97;100.00;47909.28;5016435;28;20182;-85
2023/04/19 07:27:20;;;;;;;5.07;3.90;;;;;;;-141.97;100.00;47738.19;5032334;28;20162;-86
2023/04/19 07:29:45;;;;;;;4.37;3.30;;;;;;;-141.97;100.00;47761.25;5032467;28;20196;-85
2023/04/19 07:32:12;;;;;;;5.27;3.63;;;;;;;-141.97;100.00;47820.84;5032473;28;20241;-85
2023/04/19 07:34:39;;;;;;;6.37;5.00;;;;;;;-141.97;100.00;47840.06;5043641;28;20598;-86
2023/04/19 07:37:05;;;;;;;4.97;3.53;;;;;;;-141.97;100.00;47815.09;5030288;28;20225;-85
2023/04/19 07:39:30;;;;;;;5.30;3.60;;;;;;;-141.97;100.00;47824.69;5036866;28;20806;-85
2023/04/19 07:41:55;;;;;;;12.73;8.60;;;;;;;-141.97;100.00;47751.66;5055235;28;20176;-85
2023/04/19 07:44:21;;;;;;;6.47;4.70;;;;;;;-141.97;100.00;47826.63;5033915;28;20181;-86
2023/04/19 07:46:46;;;;;;;4.90;4.03;;;;;;;-141.97;100.00;47820.84;5052982;28;20675;-85
2023/04/19 07:49:12;;;;;;;5.93;3.77;;;;;;;-141.97;100.00;47849.69;5050899;28;20213;-86
2023/04/19 07:51:38;;;;;;;5.63;4.13;;;;;;;-141.97;100.00;47795.88;5044108;28;20233;-84
2023/04/19 07:54:03;;;;;;;6.87;5.30;;;;;;;-141.97;100.00;47770.88;5043400;28;20373;-85
2023/04/19 07:56:29;;;;;;;5.67;4.27;;;;;;;-141.97;100.00;47859.28;5024293;28;20203;-86
2023/04/19 07:58:54;;;;;;;5.13;3.40;;;;;;;-141.97;100.00;47828.53;5052117;28;20157;-85
2023/04/19 08:01:19;;;;;;;5.40;4.00;;;;;;;-141.97;100.00;47957.34;5051992;28;20165;-86
2023/04/19 08:03:45;;;;;;;3.73;3.17;;;;;;;-141.97;100.00;47795.88;5026843;28;20566;-86
2023/04/19 08:06:11;;;;;;;4.73;4.20;;;;;;;-141.97;100.00;47732.44;5032017;28;20162;-86
2023/04/19 08:08:37;;;;;;;5.33;3.53;;;;;;;-141.97;100.00;47847.75;5021897;28;20527;-85
2023/04/19 08:11:03;;;;;;;5.87;4.50;;;;;;;-141.97;100.00;47818.94;5032388;28;20166;-86
2023/04/19 08:13:29;;;;;;;4.37;3.27;;;;;;;-141.97;100.00;47786.25;5032397;28;20250;-85
2023/04/19 08:15:55;;;;;;;6.30;3.50;;;;;;;-141.97;100.00;47822.78;5033871;28;20631;-85
2023/04/19 08:18:20;;;;;;;3.70;2.70;;;;;;;-141.97;100.00;47780.47;5043955;28;20200;-84
2023/04/19 08:20:46;;;;;;;4.87;3.90;;;;;;;-141.97;100.00;47849.69;5051554;28;20192;-86
2023/04/19 08:23:12;;;;;;;3.67;3.27;;;;;;;-141.97;100.00;47830.47;5043179;28;20257;-86
2023/04/19 08:25:37;;;;;;;4.03;2.80;;;;;;;-141.97;100.00;47753.56;5030683;28;20260;-85
2023/04/19 08:28:04;;;;;;;4.20;2.80;;;;;;;-141.97;100.00;47765.09;5033722;28;20177;-86
2023/04/19 08:30:29;;;;;;;5.37;2.93;;;;;;;-141.97;100.00;47801.63;5033726;28;20184;-85
2023/04/19 08:32:55;;;;;;;3.00;2.60;;;;;;;-141.97;100.00;47818.94;5044765;28;20180;-86
2023/04/19 08:35:21;;;;;;;7.07;4.20;;;;;;;-141.97;100.00;47845.84;5049961;28;20193;-86
2023/04/19 08:37:47;;;;;;;7.30;4.50;;;;;;;-141.97;100.00;47578.66;5051715;28;20662;-86
2023/04/19 08:40:13;;;;;;;9.83;5.70;;;;;;;-141.97;100.00;47592.13;5050287;28;20184;-86
2023/04/19 08:42:39;;;;;;;5.97;4.17;;;;;;;-141.97;99.84;47911.19;5050888;28;20177;-86
2023/04/19 08:45:05;;;;;;;11.17;6.30;;;;;;;-141.97;99.89;47705.53;5048938;28;20180;-86
2023/04/19 08:47:53;;;;;;;12.23;7.57;;;;;;;-141.97;99.58;47826.63;5030364;28;20189;-86
2023/04/19 08:50:23;;;;;;;12.67;7.70;;;;;;;-141.97;97.68;47968.88;5033486;28;20616;-85
2023/04/19 08:52:48;;;;;;;6.20;4.53;;;;;;;-141.97;95.69;47667.06;5040988;28;20251;-86
2023/04/19 08:55:15;;;;;;;7.53;5.07;;;;;;;-141.97;94.81;47638.25;5046605;28;20185;-85
2023/04/19 08:57:40;;;;;;;7.03;4.60;;;;;;;-141.97;95.63;47895.81;5037374;28;20162;-84
2023/04/19 09:00:10;;;;;;;7.77;4.33;;;;;;;-141.97;96.47;47861.22;5057060;28;20176;-83
2023/04/19 09:02:49;;;;;;;8.77;4.80;;;;;;;-141.97;96.45;47617.09;5054610;28;20168;-83
2023/04/19 09:05:16;;;;;;;5.50;3.43;;;;;;;-141.97;93.86;47630.56;5041758;28;20644;-86
2023/04/19 09:07:43;;;;;;;7.07;3.70;;;;;;;-141.97;95.31;47770.88;5051897;28;20207;-85
2023/04/19 09:10:14;;;;;;;4.27;3.10;;;;;;;-141.97;94.63;47759.34;5050285;28;20173;-84
2023/04/19 09:12:40;;;;;;;5.00;3.00;;;;;;;-141.97;94.82;47551.75;5052179;28;20181;-84
2023/04/19 09:15:08;;;;;;;4.13;3.00;;;;;;;-141.97;96.76;47880.44;5039381;28;20174;-84
2023/04/19 09:17:37;;;;;;;4.50;3.30;;;;;;;-141.97;97.95;47951.56;5061863;28;20181;-83
2023/04/19 09:20:04;;;;;;;7.77;4.67;;;;;;;-141.97;98.34;47797.78;5035667;28;20177;-84
2023/04/19 09:22:30;;;;;;;3.90;3.10;;;;;;;-141.97;98.24;47840.06;5051117;28;20245;-84
2023/04/19 09:24:58;;;;;;;7.10;4.43;;;;;;;-141.97;99.94;47817.00;5040717;28;20260;-83
2023/04/19 09:27:32;;;;;;;6.53;4.07;;;;;;;-141.97;99.96;47940.03;5050340;28;20178;-84
2023/04/19 09:30:00;;;;;;;9.10;5.20;;;;;;;-141.97;99.38;47811.25;5032450;28;20180;-84
2023/04/19 09:32:27;;;;;;;7.03;4.03;;;;;;;-141.97;96.40;47980.41;5049962;28;20676;-85
2023/04/19 09:34:57;;;;;;;9.70;4.93;;;;;;;-141.97;95.16;47824.69;5037245;28;20662;-85
2023/04/19 09:37:24;;;;;;;4.17;3.00;;;;;;;-141.97;93.82;47815.09;5032195;28;20221;-85
2023/04/19 09:39:50;;;;;;;35.47;17.53;;;;;;;-141.97;94.58;47620.94;5034683;28;20590;-84
2023/04/19 09:42:17;;;;;;;26.33;8.43;;;;;;;-141.97;91.98;47765.09;5054475;28;20638;-84
2023/04/19 09:44:57;;;;;;;17.17;6.60;;;;;;;-141.97;91.03;47851.59;5046147;28;20642;-85
2023/04/19 09:47:28;;;;;;;8.37;4.17;;;;;;;-141.97;89.64;47768.94;5050613;28;20181;-84
2023/04/19 09:50:10;;;;;;;6.23;4.50;;;;;;;-141.97;91.29;47815.09;5050172;28;21731;-84
2023/04/19 09:52:36;;;;;;;4.37;3.30;;;;;;;-141.97;88.20;47784.34;5040460;28;20266;-85
2023/04/19 09:55:04;;;;;;;7.63;4.60;;;;;;;-141.97;88.19;47818.94;5036246;28;20229;-86
2023/04/19 09:57:31;;;;;;;9.03;3.87;;;;;;;-141.97;86.89;47694.00;5029049;28;20166;-84
2023/04/19 09:59:58;;;;;;;3.90;3.50;;;;;;;-141.97;52.19;47615.19;5044640;28;20174;-84
2023/04/19 10:02:25;;;;;;;3.57;3.00;;;;;;;-141.97;52.46;47949.66;5048140;28;20240;-85
2023/04/19 10:04:54;;;;;;;5.20;4.03;;;;;;;-141.97;51.38;47546.00;5037124;28;20192;-86
2023/04/19 10:07:20;;;;;;;6.27;4.33;;;;;;;-141.97;51.71;47745.88;5053647;28;20173;-84
2023/04/19 10:09:49;;;;;;;4.00;3.60;;;;;;;-141.97;51.79;47849.69;5055100;28;20176;-85
2023/04/19 10:12:15;;;;;;;5.20;4.30;;;;;;;-141.97;51.96;47620.94;5053520;28;20224;-85
2023/04/19 10:14:42;;;;;;;5.20;3.70;;;;;;;-141.97;52.40;47726.66;5043043;28;20170;-86
2023/04/19 10:17:07;;;;;;;6.30;4.77;;;;;;;-141.97;52.76;47630.56;5015507;28;20237;-85
2023/04/19 10:19:36;;;;;;;13.40;4.80;;;;;;;-141.97;51.52;47720.91;5034082;28;20672;-86
2023/04/19 10:22:05;;;;;;;5.77;4.00;;;;;;;-141.97;50.62;47647.84;5053665;28;20173;-84
2023/04/19 10:24:32;;;;;;;2.77;2.50;;;;;;;-141.97;50.11;47965.03;5044501;28;20236;-83
2023/04/19 10:27:04;;;;;;;3.27;2.80;;;;;;;-141.97;51.58;47745.88;5033946;28;20193;-83
2023/04/19 10:30:11;;;;;;;4.03;2.73;;;;;;;-141.97;51.56;47840.06;5034211;28;20208;-83
2023/04/19 10:32:41;;;;;;;6.67;3.10;;;;;;;-141.97;48.95;47918.88;4972045;28;20195;-84
2023/04/19 10:35:17;;;;;;;3.07;2.40;;;;;;;-141.97;48.58;47843.91;4955384;28;20744;-83
2023/04/19 10:38:13;;;;;;;;;;;;;;;;;;;;;
2023/04/19 10:40:59;;;;;;;2.83;2.17;;;;;;;-141.97;45.14;47755.50;4972590;28;20208;-83
2023/04/19 10:43:29;;;;;;;8.23;2.40;;;;;;;-141.97;47.42;47826.63;4973134;28;20654;-84
2023/04/19 10:46:07;;;;;;;2.33;2.13;;;;;;;-141.97;47.33;47761.25;4972234;28;20602;-83
2023/04/19 10:48:37;;;;;;;4.50;2.40;;;;;;;-141.97;47.25;47474.88;4972380;28;20403;-84
2023/04/19 10:54:08;;;;;;;5.07;2.50;;;;;;;-141.97;47.86;47853.53;4932993;29;20200;-83
2023/04/19 10:56:39;;;;;;;3.10;2.50;;;;;;;-141.97;47.00;47757.41;4932881;29;20221;-83
2023/04/19 10:59:20;;;;;;;2.77;2.40;;;;;;;-141.97;46.85;47647.84;4932962;29;20709;-83
2023/04/19 11:01:50;;;;;;;4.00;2.50;;;;;;;-141.97;47.22;47780.47;4934471;29;20216;-83
2023/04/19 11:04:51;;;;;;;3.10;2.40;;;;;;;-141.97;48.66;47755.50;4933508;29;20188;-83
2023/04/19 11:07:17;;;;;;;2.83;2.47;;;;;;;-141.97;47.50;47949.66;4908838;29;20186;-83
2023/04/19 11:09:55;;;;;;;2.60;2.40;;;;;;;-141.97;46.24;47874.69;4912064;29;20187;-83